sensor_id;sensor_type;location;lat;lon;timestamp;P1;durP1;ratioP1;P2;durP2;ratioP2
12601;SDS011;30282;16.436;99.370;2023-12-20T00:01:17;18.83;;;9.00;;
12601;SDS011;30282;16.436;99.370;2023-12-20T00:03:47;20.13;;;9.27;;
12601;SDS011;30282;16.436;99.370;2023-12-20T00:06:16;20.33;;;9.37;;
12601;SDS011;30282;16.436;99.370;2023-12-20T00:08:46;24.47;;;12.07;;
12601;SDS011;30282;16.436;99.370;2023-12-20T00:11:15;17.90;;;12.47;;
12601;SDS011;30282;16.436;99.370;2023-12-20T00:13:44;18.00;;;11.37;;
12601;SDS011;30282;16.436;99.370;2023-12-20T00:16:16;18.73;;;10.47;;
12601;SDS011;30282;16.436;99.370;2023-12-20T00:18:50;16.20;;;9.43;;
12601;SDS011;30282;16.436;99.370;2023-12-20T00:21:21;22.47;;;10.37;;
12601;SDS011;30282;16.436;99.370;2023-12-20T00:23:50;17.87;;;9.03;;
12601;SDS011;30282;16.436;99.370;2023-12-20T00:26:19;14.87;;;8.80;;
12601;SDS011;30282;16.436;99.370;2023-12-20T00:28:51;15.27;;;8.03;;
12601;SDS011;30282;16.436;99.370;2023-12-20T00:31:20;12.53;;;8.30;;
12601;SDS011;30282;16.436;99.370;2023-12-20T00:33:51;15.63;;;8.50;;
12601;SDS011;30282;16.436;99.370;2023-12-20T00:36:21;16.53;;;8.80;;
12601;SDS011;30282;16.436;99.370;2023-12-20T00:38:50;22.20;;;7.90;;
12601;SDS011;30282;16.436;99.370;2023-12-20T00:41:19;19.97;;;9.20;;
12601;SDS011;30282;16.436;99.370;2023-12-20T00:43:48;12.40;;;6.73;;
12601;SDS011;30282;16.436;99.370;2023-12-20T00:46:17;17.27;;;7.10;;
12601;SDS011;30282;16.436;99.370;2023-12-20T00:48:46;15.13;;;5.57;;
12601;SDS011;30282;16.436;99.370;2023-12-20T00:51:17;14.87;;;7.03;;
12601;SDS011;30282;16.436;99.370;2023-12-20T00:53:46;12.57;;;6.30;;
12601;SDS011;30282;16.436;99.370;2023-12-20T00:56:15;16.17;;;6.63;;
12601;SDS011;30282;16.436;99.370;2023-12-20T00:58:44;19.13;;;6.00;;
12601;SDS011;30282;16.436;99.370;2023-12-20T01:01:13;14.00;;;6.77;;
12601;SDS011;30282;16.436;99.370;2023-12-20T01:03:43;15.60;;;6.70;;
12601;SDS011;30282;16.436;99.370;2023-12-20T01:06:12;19.23;;;8.10;;
12601;SDS011;30282;16.436;99.370;2023-12-20T01:08:43;65.07;;;10.83;;
12601;SDS011;30282;16.436;99.370;2023-12-20T01:11:12;19.13;;;7.00;;
12601;SDS011;30282;16.436;99.370;2023-12-20T01:13:41;15.50;;;7.83;;
12601;SDS011;30282;16.436;99.370;2023-12-20T01:16:10;18.50;;;7.67;;
12601;SDS011;30282;16.436;99.370;2023-12-20T01:18:40;18.30;;;6.87;;
12601;SDS011;30282;16.436;99.370;2023-12-20T01:21:09;15.70;;;7.77;;
12601;SDS011;30282;16.436;99.370;2023-12-20T01:23:38;16.90;;;7.60;;
12601;SDS011;30282;16.436;99.370;2023-12-20T01:26:09;19.17;;;8.23;;
12601;SDS011;30282;16.436;99.370;2023-12-20T01:28:38;17.53;;;8.63;;
12601;SDS011;30282;16.436;99.370;2023-12-20T01:31:07;19.77;;;6.40;;
12601;SDS011;30282;16.436;99.370;2023-12-20T01:33:36;13.97;;;7.53;;
12601;SDS011;30282;16.436;99.370;2023-12-20T01:36:05;17.27;;;7.20;;
12601;SDS011;30282;16.436;99.370;2023-12-20T01:38:34;14.63;;;7.70;;
12601;SDS011;30282;16.436;99.370;2023-12-20T01:41:03;16.80;;;8.10;;
12601;SDS011;30282;16.436;99.370;2023-12-20T01:43:34;15.53;;;7.50;;
12601;SDS011;30282;16.436;99.370;2023-12-20T01:46:03;23.20;;;9.93;;
12601;SDS011;30282;16.436;99.370;2023-12-20T01:48:33;16.23;;;7.60;;
12601;SDS011;30282;16.436;99.370;2023-12-20T01:51:02;20.20;;;8.30;;
12601;SDS011;30282;16.436;99.370;2023-12-20T01:53:38;16.10;;;9.30;;
12601;SDS011;30282;16.436;99.370;2023-12-20T01:56:09;17.50;;;8.10;;
12601;SDS011;30282;16.436;99.370;2023-12-20T01:58:42;33.17;;;9.10;;
12601;SDS011;30282;16.436;99.370;2023-12-20T02:01:12;15.57;;;7.10;;
12601;SDS011;30282;16.436;99.370;2023-12-20T02:03:42;22.23;;;8.70;;
12601;SDS011;30282;16.436;99.370;2023-12-20T02:06:11;20.67;;;8.60;;
12601;SDS011;30282;16.436;99.370;2023-12-20T02:08:41;14.43;;;7.90;;
12601;SDS011;30282;16.436;99.370;2023-12-20T02:11:10;13.50;;;8.97;;
12601;SDS011;30282;16.436;99.370;2023-12-20T02:13:41;20.30;;;9.80;;
12601;SDS011;30282;16.436;99.370;2023-12-20T02:16:10;20.70;;;10.20;;
12601;SDS011;30282;16.436;99.370;2023-12-20T02:18:39;17.43;;;9.63;;
12601;SDS011;30282;16.436;99.370;2023-12-20T02:21:10;15.93;;;9.87;;
12601;SDS011;30282;16.436;99.370;2023-12-20T02:23:40;15.07;;;8.97;;
12601;SDS011;30282;16.436;99.370;2023-12-20T02:26:09;18.47;;;10.17;;
12601;SDS011;30282;16.436;99.370;2023-12-20T02:28:40;17.53;;;9.63;;
12601;SDS011;30282;16.436;99.370;2023-12-20T02:31:10;15.57;;;9.00;;
12601;SDS011;30282;16.436;99.370;2023-12-20T02:33:39;15.63;;;7.50;;
12601;SDS011;30282;16.436;99.370;2023-12-20T02:36:08;15.67;;;8.30;;
12601;SDS011;30282;16.436;99.370;2023-12-20T02:38:37;18.13;;;8.47;;
12601;SDS011;30282;16.436;99.370;2023-12-20T02:41:07;15.93;;;8.60;;
12601;SDS011;30282;16.436;99.370;2023-12-20T02:43:36;17.73;;;8.07;;
12601;SDS011;30282;16.436;99.370;2023-12-20T02:46:05;16.03;;;8.20;;
12601;SDS011;30282;16.436;99.370;2023-12-20T02:48:34;13.07;;;8.60;;
12601;SDS011;30282;16.436;99.370;2023-12-20T02:51:06;15.87;;;8.53;;
12601;SDS011;30282;16.436;99.370;2023-12-20T02:53:41;15.00;;;8.70;;
12601;SDS011;30282;16.436;99.370;2023-12-20T02:56:11;12.80;;;8.30;;
12601;SDS011;30282;16.436;99.370;2023-12-20T02:58:41;16.47;;;7.97;;
12601;SDS011;30282;16.436;99.370;2023-12-20T03:01:10;16.70;;;8.07;;
12601;SDS011;30282;16.436;99.370;2023-12-20T03:03:45;19.37;;;8.27;;
12601;SDS011;30282;16.436;99.370;2023-12-20T03:06:15;12.77;;;8.27;;
12601;SDS011;30282;16.436;99.370;2023-12-20T03:08:45;14.20;;;7.57;;
12601;SDS011;30282;16.436;99.370;2023-12-20T03:11:26;14.77;;;8.03;;
12601;SDS011;30282;16.436;99.370;2023-12-20T03:13:55;13.00;;;8.10;;
12601;SDS011;30282;16.436;99.370;2023-12-20T03:16:27;18.67;;;8.70;;
12601;SDS011;30282;16.436;99.370;2023-12-20T03:19:06;13.10;;;7.00;;
12601;SDS011;30282;16.436;99.370;2023-12-20T03:21:35;235.20;;;32.90;;
12601;SDS011;30282;16.436;99.370;2023-12-20T03:24:04;11.03;;;6.30;;
12601;SDS011;30282;16.436;99.370;2023-12-20T03:26:35;42.27;;;10.60;;
12601;SDS011;30282;16.436;99.370;2023-12-20T03:29:04;12.70;;;8.03;;
12601;SDS011;30282;16.436;99.370;2023-12-20T03:31:33;15.37;;;7.07;;
12601;SDS011;30282;16.436;99.370;2023-12-20T03:34:02;12.00;;;7.30;;
12601;SDS011;30282;16.436;99.370;2023-12-20T03:36:31;13.30;;;6.30;;
12601;SDS011;30282;16.436;99.370;2023-12-20T03:39:00;14.80;;;7.17;;
12601;SDS011;30282;16.436;99.370;2023-12-20T03:41:29;14.20;;;6.87;;
12601;SDS011;30282;16.436;99.370;2023-12-20T03:44:00;14.43;;;7.20;;
12601;SDS011;30282;16.436;99.370;2023-12-20T03:46:38;9.57;;;5.77;;
12601;SDS011;30282;16.436;99.370;2023-12-20T03:49:11;13.30;;;6.33;;
12601;SDS011;30282;16.436;99.370;2023-12-20T03:51:45;11.70;;;5.73;;
12601;SDS011;30282;16.436;99.370;2023-12-20T03:54:14;8.77;;;5.27;;
12601;SDS011;30282;16.436;99.370;2023-12-20T03:56:43;11.83;;;6.23;;
12601;SDS011;30282;16.436;99.370;2023-12-20T03:59:13;13.67;;;5.43;;
12601;SDS011;30282;16.436;99.370;2023-12-20T04:01:43;13.20;;;6.00;;
12601;SDS011;30282;16.436;99.370;2023-12-20T04:04:12;11.37;;;5.60;;
12601;SDS011;30282;16.436;99.370;2023-12-20T04:06:41;17.60;;;6.80;;
12601;SDS011;30282;16.436;99.370;2023-12-20T04:09:11;13.80;;;6.30;;
12601;SDS011;30282;16.436;99.370;2023-12-20T04:11:40;12.37;;;6.53;;
12601;SDS011;30282;16.436;99.370;2023-12-20T04:14:09;10.90;;;5.90;;
12601;SDS011;30282;16.436;99.370;2023-12-20T04:16:40;10.93;;;6.10;;
12601;SDS011;30282;16.436;99.370;2023-12-20T04:19:09;12.57;;;7.50;;
12601;SDS011;30282;16.436;99.370;2023-12-20T04:21:38;24.57;;;7.30;;
12601;SDS011;30282;16.436;99.370;2023-12-20T04:24:07;11.10;;;6.97;;
12601;SDS011;30282;16.436;99.370;2023-12-20T04:26:36;12.80;;;6.87;;
12601;SDS011;30282;16.436;99.370;2023-12-20T04:29:05;14.30;;;6.20;;
12601;SDS011;30282;16.436;99.370;2023-12-20T04:31:34;12.33;;;6.17;;
12601;SDS011;30282;16.436;99.370;2023-12-20T04:34:05;13.30;;;5.60;;
12601;SDS011;30282;16.436;99.370;2023-12-20T04:36:34;10.57;;;6.10;;
12601;SDS011;30282;16.436;99.370;2023-12-20T04:39:03;11.17;;;6.27;;
12601;SDS011;30282;16.436;99.370;2023-12-20T04:41:32;13.27;;;5.60;;
12601;SDS011;30282;16.436;99.370;2023-12-20T04:44:05;12.20;;;6.20;;
12601;SDS011;30282;16.436;99.370;2023-12-20T04:46:35;12.33;;;6.30;;
12601;SDS011;30282;16.436;99.370;2023-12-20T04:49:08;16.67;;;6.63;;
12601;SDS011;30282;16.436;99.370;2023-12-20T04:51:37;13.90;;;6.23;;
12601;SDS011;30282;16.436;99.370;2023-12-20T04:54:06;11.47;;;5.40;;
12601;SDS011;30282;16.436;99.370;2023-12-20T04:56:36;10.50;;;5.40;;
12601;SDS011;30282;16.436;99.370;2023-12-20T04:59:05;9.20;;;5.10;;
12601;SDS011;30282;16.436;99.370;2023-12-20T05:01:34;14.03;;;5.63;;
12601;SDS011;30282;16.436;99.370;2023-12-20T05:04:03;9.73;;;5.67;;
12601;SDS011;30282;16.436;99.370;2023-12-20T05:06:34;9.77;;;5.53;;
12601;SDS011;30282;16.436;99.370;2023-12-20T05:09:03;8.60;;;5.40;;
12601;SDS011;30282;16.436;99.370;2023-12-20T05:11:32;11.40;;;6.23;;
12601;SDS011;30282;16.436;99.370;2023-12-20T05:14:01;12.10;;;6.13;;
12601;SDS011;30282;16.436;99.370;2023-12-20T05:16:30;10.53;;;5.50;;
12601;SDS011;30282;16.436;99.370;2023-12-20T05:18:59;10.73;;;5.47;;
12601;SDS011;30282;16.436;99.370;2023-12-20T05:21:32;10.47;;;5.30;;
12601;SDS011;30282;16.436;99.370;2023-12-20T05:24:03;12.40;;;5.30;;
12601;SDS011;30282;16.436;99.370;2023-12-20T05:26:32;10.00;;;5.60;;
12601;SDS011;30282;16.436;99.370;2023-12-20T05:29:01;11.90;;;5.10;;
12601;SDS011;30282;16.436;99.370;2023-12-20T05:31:31;8.57;;;4.70;;
12601;SDS011;30282;16.436;99.370;2023-12-20T05:34:00;10.17;;;4.87;;
12601;SDS011;30282;16.436;99.370;2023-12-20T05:36:29;12.67;;;5.37;;
12601;SDS011;30282;16.436;99.370;2023-12-20T05:38:59;10.73;;;5.20;;
12601;SDS011;30282;16.436;99.370;2023-12-20T05:41:29;10.00;;;5.13;;
12601;SDS011;30282;16.436;99.370;2023-12-20T05:43:58;11.90;;;6.03;;
12601;SDS011;30282;16.436;99.370;2023-12-20T05:46:27;41.87;;;26.30;;
12601;SDS011;30282;16.436;99.370;2023-12-20T05:48:56;12.00;;;6.00;;
12601;SDS011;30282;16.436;99.370;2023-12-20T05:51:25;12.23;;;6.23;;
12601;SDS011;30282;16.436;99.370;2023-12-20T05:53:54;9.87;;;5.90;;
12601;SDS011;30282;16.436;99.370;2023-12-20T05:56:25;10.53;;;6.57;;
12601;SDS011;30282;16.436;99.370;2023-12-20T05:58:54;14.30;;;6.37;;
12601;SDS011;30282;16.436;99.370;2023-12-20T06:01:24;13.93;;;5.20;;
12601;SDS011;30282;16.436;99.370;2023-12-20T06:03:53;12.10;;;6.30;;
12601;SDS011;30282;16.436;99.370;2023-12-20T06:06:23;8.87;;;6.30;;
12601;SDS011;30282;16.436;99.370;2023-12-20T06:08:52;11.67;;;6.17;;
12601;SDS011;30282;16.436;99.370;2023-12-20T06:11:21;12.47;;;5.50;;
12601;SDS011;30282;16.436;99.370;2023-12-20T06:13:51;15.70;;;6.07;;
12601;SDS011;30282;16.436;99.370;2023-12-20T06:16:21;10.00;;;5.90;;
12601;SDS011;30282;16.436;99.370;2023-12-20T06:18:50;13.60;;;5.10;;
12601;SDS011;30282;16.436;99.370;2023-12-20T06:21:19;20.43;;;10.97;;
12601;SDS011;30282;16.436;99.370;2023-12-20T06:23:48;30.17;;;17.87;;
12601;SDS011;30282;16.436;99.370;2023-12-20T06:26:17;176.53;;;98.03;;
12601;SDS011;30282;16.436;99.370;2023-12-20T06:28:46;31.03;;;17.50;;
12601;SDS011;30282;16.436;99.370;2023-12-20T06:31:16;28.50;;;12.90;;
12601;SDS011;30282;16.436;99.370;2023-12-20T06:33:46;10.47;;;5.73;;
12601;SDS011;30282;16.436;99.370;2023-12-20T06:36:22;13.93;;;5.60;;
12601;SDS011;30282;16.436;99.370;2023-12-20T06:38:52;10.20;;;5.80;;
12601;SDS011;30282;16.436;99.370;2023-12-20T06:41:21;8.97;;;5.87;;
12601;SDS011;30282;16.436;99.370;2023-12-20T06:43:50;8.20;;;5.67;;
12601;SDS011;30282;16.436;99.370;2023-12-20T06:46:21;11.47;;;5.77;;
12601;SDS011;30282;16.436;99.370;2023-12-20T06:48:50;8.73;;;5.43;;
12601;SDS011;30282;16.436;99.370;2023-12-20T06:51:19;15.20;;;5.63;;
12601;SDS011;30282;16.436;99.370;2023-12-20T06:53:51;8.70;;;4.60;;
12601;SDS011;30282;16.436;99.370;2023-12-20T06:56:20;16.90;;;5.30;;
12601;SDS011;30282;16.436;99.370;2023-12-20T06:58:49;10.60;;;5.00;;
12601;SDS011;30282;16.436;99.370;2023-12-20T07:01:18;8.30;;;5.20;;
12601;SDS011;30282;16.436;99.370;2023-12-20T07:03:49;11.10;;;5.43;;
12601;SDS011;30282;16.436;99.370;2023-12-20T07:06:19;13.00;;;5.50;;
12601;SDS011;30282;16.436;99.370;2023-12-20T07:08:48;8.23;;;5.57;;
12601;SDS011;30282;16.436;99.370;2023-12-20T07:11:17;12.47;;;5.13;;
12601;SDS011;30282;16.436;99.370;2023-12-20T07:13:46;14.50;;;5.87;;
12601;SDS011;30282;16.436;99.370;2023-12-20T07:16:15;12.43;;;5.67;;
12601;SDS011;30282;16.436;99.370;2023-12-20T07:18:46;8.93;;;5.60;;
12601;SDS011;30282;16.436;99.370;2023-12-20T07:21:15;10.57;;;5.67;;
12601;SDS011;30282;16.436;99.370;2023-12-20T07:23:44;13.00;;;5.40;;
12601;SDS011;30282;16.436;99.370;2023-12-20T07:26:15;12.53;;;5.07;;
12601;SDS011;30282;16.436;99.370;2023-12-20T07:28:45;11.50;;;5.20;;
12601;SDS011;30282;16.436;99.370;2023-12-20T07:31:15;10.80;;;4.80;;
12601;SDS011;30282;16.436;99.370;2023-12-20T07:33:46;7.67;;;4.83;;
12601;SDS011;30282;16.436;99.370;2023-12-20T07:36:15;8.63;;;5.07;;
12601;SDS011;30282;16.436;99.370;2023-12-20T07:38:44;12.90;;;5.00;;
12601;SDS011;30282;16.436;99.370;2023-12-20T07:41:13;15.83;;;4.73;;
12601;SDS011;30282;16.436;99.370;2023-12-20T07:43:43;11.90;;;4.63;;
12601;SDS011;30282;16.436;99.370;2023-12-20T07:46:12;9.87;;;4.43;;
12601;SDS011;30282;16.436;99.370;2023-12-20T07:48:41;9.77;;;5.40;;
12601;SDS011;30282;16.436;99.370;2023-12-20T07:51:13;10.83;;;4.83;;
12601;SDS011;30282;16.436;99.370;2023-12-20T07:53:46;8.23;;;5.00;;
12601;SDS011;30282;16.436;99.370;2023-12-20T07:56:16;6.83;;;4.90;;
12601;SDS011;30282;16.436;99.370;2023-12-20T07:58:46;10.87;;;5.50;;
12601;SDS011;30282;16.436;99.370;2023-12-20T08:01:16;19.60;;;6.13;;
12601;SDS011;30282;16.436;99.370;2023-12-20T08:03:45;14.73;;;5.53;;
12601;SDS011;30282;16.436;99.370;2023-12-20T08:06:17;12.20;;;5.97;;
12601;SDS011;30282;16.436;99.370;2023-12-20T08:08:46;9.77;;;5.57;;
12601;SDS011;30282;16.436;99.370;2023-12-20T08:11:15;12.17;;;5.63;;
12601;SDS011;30282;16.436;99.370;2023-12-20T08:13:44;9.10;;;6.50;;
12601;SDS011;30282;16.436;99.370;2023-12-20T08:16:13;14.13;;;6.43;;
12601;SDS011;30282;16.436;99.370;2023-12-20T08:18:43;12.53;;;7.03;;
12601;SDS011;30282;16.436;99.370;2023-12-20T08:21:12;13.80;;;7.30;;
12601;SDS011;30282;16.436;99.370;2023-12-20T08:23:43;10.10;;;6.43;;
12601;SDS011;30282;16.436;99.370;2023-12-20T08:26:12;8.93;;;5.63;;
12601;SDS011;30282;16.436;99.370;2023-12-20T08:28:41;11.20;;;6.07;;
12601;SDS011;30282;16.436;99.370;2023-12-20T08:31:13;18.00;;;6.67;;
12601;SDS011;30282;16.436;99.370;2023-12-20T08:33:49;11.73;;;6.13;;
12601;SDS011;30282;16.436;99.370;2023-12-20T08:36:19;18.43;;;6.47;;
12601;SDS011;30282;16.436;99.370;2023-12-20T08:38:53;14.80;;;6.30;;
12601;SDS011;30282;16.436;99.370;2023-12-20T08:41:22;14.03;;;6.47;;
12601;SDS011;30282;16.436;99.370;2023-12-20T08:43:51;14.33;;;5.70;;
12601;SDS011;30282;16.436;99.370;2023-12-20T08:46:20;34.27;;;7.63;;
12601;SDS011;30282;16.436;99.370;2023-12-20T08:48:49;13.23;;;6.80;;
12601;SDS011;30282;16.436;99.370;2023-12-20T08:51:18;12.00;;;6.43;;
12601;SDS011;30282;16.436;99.370;2023-12-20T08:53:49;24.13;;;7.33;;
12601;SDS011;30282;16.436;99.370;2023-12-20T08:56:20;13.00;;;6.60;;
12601;SDS011;30282;16.436;99.370;2023-12-20T08:58:49;18.23;;;6.73;;
12601;SDS011;30282;16.436;99.370;2023-12-20T09:01:18;22.37;;;7.80;;
12601;SDS011;30282;16.436;99.370;2023-12-20T09:03:47;12.40;;;6.47;;
12601;SDS011;30282;16.436;99.370;2023-12-20T09:06:16;16.53;;;5.50;;
12601;SDS011;30282;16.436;99.370;2023-12-20T09:08:45;8.93;;;5.20;;
12601;SDS011;30282;16.436;99.370;2023-12-20T09:11:14;13.83;;;4.87;;
12601;SDS011;30282;16.436;99.370;2023-12-20T09:13:45;8.70;;;5.80;;
12601;SDS011;30282;16.436;99.370;2023-12-20T09:16:14;12.50;;;6.23;;
12601;SDS011;30282;16.436;99.370;2023-12-20T09:18:43;10.03;;;5.73;;
12601;SDS011;30282;16.436;99.370;2023-12-20T09:21:12;29.97;;;7.87;;
12601;SDS011;30282;16.436;99.370;2023-12-20T09:23:44;13.63;;;6.60;;
12601;SDS011;30282;16.436;99.370;2023-12-20T09:26:15;11.43;;;6.77;;
12601;SDS011;30282;16.436;99.370;2023-12-20T09:28:46;8.10;;;5.30;;
12601;SDS011;30282;16.436;99.370;2023-12-20T09:31:15;12.03;;;6.47;;
12601;SDS011;30282;16.436;99.370;2023-12-20T09:33:44;14.70;;;5.60;;
12601;SDS011;30282;16.436;99.370;2023-12-20T09:36:13;10.93;;;5.97;;
12601;SDS011;30282;16.436;99.370;2023-12-20T09:38:42;13.03;;;6.73;;
12601;SDS011;30282;16.436;99.370;2023-12-20T09:41:14;22.23;;;7.03;;
12601;SDS011;30282;16.436;99.370;2023-12-20T09:43:43;14.10;;;6.73;;
12601;SDS011;30282;16.436;99.370;2023-12-20T09:46:15;12.87;;;6.20;;
12601;SDS011;30282;16.436;99.370;2023-12-20T09:48:52;12.67;;;6.30;;
12601;SDS011;30282;16.436;99.370;2023-12-20T09:51:21;13.67;;;7.00;;
12601;SDS011;30282;16.436;99.370;2023-12-20T09:53:51;26.13;;;7.13;;
12601;SDS011;30282;16.436;99.370;2023-12-20T09:56:24;11.10;;;6.30;;
12601;SDS011;30282;16.436;99.370;2023-12-20T09:58:56;11.07;;;7.33;;
12601;SDS011;30282;16.436;99.370;2023-12-20T10:01:27;14.03;;;7.17;;
12601;SDS011;30282;16.436;99.370;2023-12-20T10:03:57;15.70;;;7.53;;
12601;SDS011;30282;16.436;99.370;2023-12-20T10:06:28;9.97;;;6.83;;
12601;SDS011;30282;16.436;99.370;2023-12-20T10:08:57;16.20;;;8.07;;
12601;SDS011;30282;16.436;99.370;2023-12-20T10:11:26;12.33;;;7.70;;
12601;SDS011;30282;16.436;99.370;2023-12-20T10:14:00;14.93;;;8.17;;
12601;SDS011;30282;16.436;99.370;2023-12-20T10:16:29;45.50;;;9.57;;
12601;SDS011;30282;16.436;99.370;2023-12-20T10:18:59;16.50;;;7.00;;
12601;SDS011;30282;16.436;99.370;2023-12-20T10:21:29;21.37;;;6.80;;
12601;SDS011;30282;16.436;99.370;2023-12-20T10:23:58;19.80;;;7.67;;
12601;SDS011;30282;16.436;99.370;2023-12-20T10:26:28;29.73;;;8.03;;
12601;SDS011;30282;16.436;99.370;2023-12-20T10:28:59;14.80;;;8.17;;
12601;SDS011;30282;16.436;99.370;2023-12-20T10:31:31;17.90;;;7.27;;
12601;SDS011;30282;16.436;99.370;2023-12-20T10:34:02;12.33;;;6.93;;
12601;SDS011;30282;16.436;99.370;2023-12-20T10:36:32;20.77;;;7.87;;
12601;SDS011;30282;16.436;99.370;2023-12-20T10:39:02;14.27;;;8.20;;
12601;SDS011;30282;16.436;99.370;2023-12-20T10:41:32;20.50;;;9.00;;
12601;SDS011;30282;16.436;99.370;2023-12-20T10:44:08;15.30;;;9.20;;
12601;SDS011;30282;16.436;99.370;2023-12-20T10:46:40;19.07;;;9.50;;
12601;SDS011;30282;16.436;99.370;2023-12-20T10:49:15;15.73;;;9.10;;
12601;SDS011;30282;16.436;99.370;2023-12-20T10:51:46;27.50;;;17.57;;
12601;SDS011;30282;16.436;99.370;2023-12-20T10:54:17;49.37;;;35.87;;
12601;SDS011;30282;16.436;99.370;2023-12-20T10:56:46;35.93;;;20.83;;
12601;SDS011;30282;16.436;99.370;2023-12-20T10:59:22;29.30;;;14.23;;
12601;SDS011;30282;16.436;99.370;2023-12-20T11:01:55;26.17;;;12.80;;
12601;SDS011;30282;16.436;99.370;2023-12-20T11:04:25;20.97;;;12.73;;
12601;SDS011;30282;16.436;99.370;2023-12-20T11:07:05;23.50;;;10.53;;
12601;SDS011;30282;16.436;99.370;2023-12-20T11:09:45;22.47;;;13.30;;
12601;SDS011;30282;16.436;99.370;2023-12-20T11:12:21;23.40;;;12.83;;
12601;SDS011;30282;16.436;99.370;2023-12-20T11:14:58;58.17;;;17.07;;
12601;SDS011;30282;16.436;99.370;2023-12-20T11:17:30;51.83;;;17.07;;
12601;SDS011;30282;16.436;99.370;2023-12-20T11:20:07;51.00;;;17.93;;
12601;SDS011;30282;16.436;99.370;2023-12-20T11:22:37;60.03;;;21.60;;
12601;SDS011;30282;16.436;99.370;2023-12-20T11:25:08;58.07;;;20.50;;
12601;SDS011;30282;16.436;99.370;2023-12-20T11:27:40;46.90;;;17.73;;
12601;SDS011;30282;16.436;99.370;2023-12-20T11:30:13;52.07;;;19.80;;
12601;SDS011;30282;16.436;99.370;2023-12-20T11:32:48;38.03;;;16.00;;
12601;SDS011;30282;16.436;99.370;2023-12-20T11:35:19;33.77;;;14.73;;
12601;SDS011;30282;16.436;99.370;2023-12-20T11:37:49;30.73;;;14.30;;
12601;SDS011;30282;16.436;99.370;2023-12-20T11:40:25;24.87;;;12.17;;
12601;SDS011;30282;16.436;99.370;2023-12-20T11:42:54;32.97;;;17.07;;
12601;SDS011;30282;16.436;99.370;2023-12-20T11:45:25;38.63;;;17.43;;
12601;SDS011;30282;16.436;99.370;2023-12-20T11:47:55;58.20;;;29.60;;
12601;SDS011;30282;16.436;99.370;2023-12-20T11:50:25;71.50;;;45.57;;
12601;SDS011;30282;16.436;99.370;2023-12-20T11:52:54;56.73;;;35.00;;
12601;SDS011;30282;16.436;99.370;2023-12-20T11:55:23;43.50;;;26.07;;
12601;SDS011;30282;16.436;99.370;2023-12-20T11:57:52;25.37;;;11.80;;
12601;SDS011;30282;16.436;99.370;2023-12-20T12:00:22;28.33;;;14.00;;
12601;SDS011;30282;16.436;99.370;2023-12-20T12:02:57;20.83;;;10.23;;
12601;SDS011;30282;16.436;99.370;2023-12-20T12:05:30;23.37;;;9.90;;
12601;SDS011;30282;16.436;99.370;2023-12-20T12:07:59;26.43;;;12.33;;
12601;SDS011;30282;16.436;99.370;2023-12-20T12:10:28;33.87;;;12.27;;
12601;SDS011;30282;16.436;99.370;2023-12-20T12:12:58;18.23;;;11.60;;
12601;SDS011;30282;16.436;99.370;2023-12-20T12:15:28;18.17;;;12.20;;
12601;SDS011;30282;16.436;99.370;2023-12-20T12:17:59;27.80;;;13.90;;
12601;SDS011;30282;16.436;99.370;2023-12-20T12:20:28;32.67;;;13.73;;
12601;SDS011;30282;16.436;99.370;2023-12-20T12:22:58;22.97;;;12.07;;
12601;SDS011;30282;16.436;99.370;2023-12-20T12:25:28;27.30;;;12.67;;
12601;SDS011;30282;16.436;99.370;2023-12-20T12:27:58;24.43;;;12.80;;
12601;SDS011;30282;16.436;99.370;2023-12-20T12:30:27;22.00;;;13.67;;
12601;SDS011;30282;16.436;99.370;2023-12-20T12:32:56;24.50;;;10.83;;
12601;SDS011;30282;16.436;99.370;2023-12-20T12:35:27;31.73;;;14.23;;
12601;SDS011;30282;16.436;99.370;2023-12-20T12:37:58;25.80;;;13.97;;
12601;SDS011;30282;16.436;99.370;2023-12-20T12:40:28;27.73;;;14.80;;
12601;SDS011;30282;16.436;99.370;2023-12-20T12:43:02;25.80;;;14.20;;
12601;SDS011;30282;16.436;99.370;2023-12-20T12:45:32;26.40;;;14.20;;
12601;SDS011;30282;16.436;99.370;2023-12-20T12:48:03;27.10;;;13.47;;
12601;SDS011;30282;16.436;99.370;2023-12-20T12:50:33;35.23;;;14.10;;
12601;SDS011;30282;16.436;99.370;2023-12-20T12:53:02;32.23;;;13.43;;
12601;SDS011;30282;16.436;99.370;2023-12-20T12:55:32;28.77;;;14.90;;
12601;SDS011;30282;16.436;99.370;2023-12-20T12:58:02;37.60;;;16.17;;
12601;SDS011;30282;16.436;99.370;2023-12-20T13:00:32;43.47;;;22.73;;
12601;SDS011;30282;16.436;99.370;2023-12-20T13:03:03;39.03;;;19.37;;
12601;SDS011;30282;16.436;99.370;2023-12-20T13:05:32;46.10;;;21.50;;
12601;SDS011;30282;16.436;99.370;2023-12-20T13:08:01;44.67;;;22.37;;
12601;SDS011;30282;16.436;99.370;2023-12-20T13:10:30;41.57;;;22.07;;
12601;SDS011;30282;16.436;99.370;2023-12-20T13:12:59;53.10;;;23.37;;
12601;SDS011;30282;16.436;99.370;2023-12-20T13:15:29;55.63;;;26.20;;
12601;SDS011;30282;16.436;99.370;2023-12-20T13:17:58;55.57;;;27.37;;
12601;SDS011;30282;16.436;99.370;2023-12-20T13:20:29;52.60;;;29.33;;
12601;SDS011;30282;16.436;99.370;2023-12-20T13:22:58;66.10;;;32.87;;
12601;SDS011;30282;16.436;99.370;2023-12-20T13:25:35;64.87;;;32.57;;
12601;SDS011;30282;16.436;99.370;2023-12-20T13:28:04;70.27;;;34.80;;
12601;SDS011;30282;16.436;99.370;2023-12-20T13:30:42;88.70;;;37.07;;
12601;SDS011;30282;16.436;99.370;2023-12-20T13:33:12;67.30;;;35.17;;
12601;SDS011;30282;16.436;99.370;2023-12-20T13:35:49;79.83;;;37.80;;
12601;SDS011;30282;16.436;99.370;2023-12-20T13:38:34;76.27;;;36.23;;
12601;SDS011;30282;16.436;99.370;2023-12-20T13:41:06;75.50;;;36.10;;
12601;SDS011;30282;16.436;99.370;2023-12-20T13:43:36;70.13;;;34.90;;
12601;SDS011;30282;16.436;99.370;2023-12-20T13:46:05;78.57;;;37.07;;
12601;SDS011;30282;16.436;99.370;2023-12-20T13:48:35;65.90;;;32.70;;
12601;SDS011;30282;16.436;99.370;2023-12-20T13:51:08;60.63;;;31.97;;
12601;SDS011;30282;16.436;99.370;2023-12-20T13:53:37;67.47;;;32.67;;
12601;SDS011;30282;16.436;99.370;2023-12-20T13:56:06;58.97;;;29.40;;
12601;SDS011;30282;16.436;99.370;2023-12-20T13:58:36;61.53;;;30.47;;
12601;SDS011;30282;16.436;99.370;2023-12-20T14:01:05;51.93;;;30.73;;
12601;SDS011;30282;16.436;99.370;2023-12-20T14:03:34;53.93;;;30.83;;
12601;SDS011;30282;16.436;99.370;2023-12-20T14:06:05;45.30;;;26.70;;
12601;SDS011;30282;16.436;99.370;2023-12-20T14:08:34;50.47;;;27.17;;
12601;SDS011;30282;16.436;99.370;2023-12-20T14:11:04;42.23;;;25.70;;
12601;SDS011;30282;16.436;99.370;2023-12-20T14:13:33;50.33;;;25.70;;
12601;SDS011;30282;16.436;99.370;2023-12-20T14:16:08;38.43;;;23.80;;
12601;SDS011;30282;16.436;99.370;2023-12-20T14:18:43;37.10;;;22.20;;
12601;SDS011;30282;16.436;99.370;2023-12-20T14:21:15;48.50;;;22.80;;
12601;SDS011;30282;16.436;99.370;2023-12-20T14:23:47;34.90;;;21.50;;
12601;SDS011;30282;16.436;99.370;2023-12-20T14:26:17;40.30;;;19.97;;
12601;SDS011;30282;16.436;99.370;2023-12-20T14:28:46;49.43;;;22.83;;
12601;SDS011;30282;16.436;99.370;2023-12-20T14:31:15;45.40;;;22.43;;
12601;SDS011;30282;16.436;99.370;2023-12-20T14:33:47;48.10;;;22.83;;
12601;SDS011;30282;16.436;99.370;2023-12-20T14:36:18;44.60;;;22.37;;